Time;durP1;ratioP1;P1;durP2;ratioP2;P2;SDS_P1;SDS_P2;PMS_P1;PMS_P2;Temp;Humidity;BMP_temperature;BMP_pressure;BME280_temperature;BME280_humidity;BME280_pressure;Samples;Min_cycle;Max_cycle;Signal;HPM_P1;HPM_P2
2020/12/29 00:02:22;;;;;;;3.40;1.35;;;20.80;46.50;;;;;;5036579;28;20022;-52
2020/12/29 00:04:47;;;;;;;2.05;1.13;;;20.70;46.50;;;;;;5036265;28;20075;-45
2020/12/29 00:07:13;;;;;;;1.40;1.30;;;20.70;46.50;;;;;;5036362;28;20096;-43
2020/12/29 00:09:38;;;;;;;1.23;1.10;;;20.70;46.50;;;;;;5036990;28;20060;-44
2020/12/29 00:12:04;;;;;;;1.88;1.20;;;20.70;46.50;;;;;;5036406;28;20482;-45
2020/12/29 00:14:29;;;;;;;1.67;1.17;;;20.70;46.50;;;;;;5036582;28;20013;-47
2020/12/29 00:16:55;;;;;;;1.38;1.20;;;20.60;46.50;;;;;;5036065;28;20045;-50
2020/12/29 00:19:26;;;;;;;1.13;1.02;;;20.60;46.50;;;;;;5036065;28;20387;-51
2020/12/29 00:21:52;;;;;;;2.20;1.10;;;20.60;46.50;;;;;;5036578;28;20030;-50
2020/12/29 00:24:17;;;;;;;1.23;1.10;;;20.60;46.40;;;;;;5036236;28;20406;-50
2020/12/29 00:26:43;;;;;;;1.10;1.00;;;20.60;46.50;;;;;;5036236;28;20392;-51
2020/12/29 00:29:08;;;;;;;1.60;1.08;;;20.50;46.40;;;;;;5034937;28;20038;-52
2020/12/29 00:31:35;;;;;;;1.02;0.90;;;20.50;47.10;;;;;;5035550;28;20083;-50
2020/12/29 00:34:02;;;;;;;1.23;1.13;;;20.50;46.40;;;;;;5036182;28;20026;-50
2020/12/29 00:36:27;;;;;;;1.15;1.08;;;20.50;46.40;;;;;;5035929;28;20021;-52
2020/12/29 00:38:53;;;;;;;1.73;1.30;;;20.50;46.30;;;;;;5036125;28;20063;-52
2020/12/29 00:41:19;;;;;;;1.58;0.90;;;20.40;46.30;;;;;;5035493;28;20021;-50
2020/12/29 00:43:45;;;;;;;1.02;0.93;;;20.40;46.30;;;;;;5035814;28;20025;-50
2020/12/29 00:46:16;;;;;;;0.80;0.80;;;20.40;46.30;;;;;;5035364;28;20040;-50
2020/12/29 00:48:42;;;;;;;1.40;1.08;;;20.40;46.30;;;;;;5035779;28;20139;-51
2020/12/29 00:51:12;;;;;;;1.10;1.00;;;20.40;46.30;;;;;;5035718;28;20128;-51
2020/12/29 00:53:38;;;;;;;1.50;1.17;;;20.40;46.30;;;;;;5035768;28;20025;-46
2020/12/29 00:56:05;;;;;;;1.20;1.00;;;20.30;46.20;;;;;;5035552;28;20033;-47
2020/12/29 00:58:31;;;;;;;2.45;1.02;;;20.30;46.20;;;;;;5035046;28;20029;-47
2020/12/29 01:00:58;;;;;;;1.48;0.95;;;20.40;46.30;;;;;;5035660;28;20022;-49
2020/12/29 01:03:24;;;;;;;1.00;0.90;;;20.30;46.20;;;;;;5035711;28;20112;-50
2020/12/29 01:05:50;;;;;;;0.63;0.63;;;20.30;46.20;;;;;;5035166;28;20068;-45
2020/12/29 01:08:16;;;;;;;1.08;1.00;;;20.30;46.20;;;;;;5035468;28;20034;-45
2020/12/29 01:10:43;;;;;;;0.70;0.70;;;20.20;46.10;;;;;;5035533;28;20025;-46
2020/12/29 01:13:14;;;;;;;1.38;1.10;;;20.30;46.20;;;;;;5035007;28;20025;-47
2020/12/29 01:15:40;;;;;;;0.90;0.90;;;20.20;46.10;;;;;;5035225;28;20036;-48
2020/12/29 01:18:06;;;;;;;1.20;1.10;;;20.20;46.10;;;;;;5034788;28;20026;-45
2020/12/29 01:20:32;;;;;;;0.80;0.80;;;20.20;46.10;;;;;;5035178;28;20022;-44
2020/12/29 01:22:57;;;;;;;0.68;0.68;;;20.20;46.10;;;;;;5035002;28;20033;-44
2020/12/29 01:25:23;;;;;;;0.88;0.88;;;20.10;46.00;;;;;;5035098;28;20057;-46
2020/12/29 01:27:49;;;;;;;1.02;0.93;;;20.20;46.10;;;;;;5034960;28;20040;-45
2020/12/29 01:30:15;;;;;;;0.73;0.70;;;20.10;46.00;;;;;;5035026;28;20095;-44
2020/12/29 01:32:41;;;;;;;1.23;0.82;;;20.10;46.00;;;;;;5035116;28;20387;-48
2020/12/29 01:35:07;;;;;;;0.73;0.73;;;20.10;46.00;;;;;;5035216;28;20052;-45
2020/12/29 01:37:34;;;;;;;1.05;1.00;;;20.10;46.00;;;;;;5035108;28;20030;-43
2020/12/29 01:39:59;;;;;;;1.33;0.90;;;20.10;46.00;;;;;;5034918;28;20429;-44
2020/12/29 01:42:25;;;;;;;0.75;0.75;;;20.10;46.00;;;;;;5034749;28;20025;-45
2020/12/29 01:44:51;;;;;;;0.77;0.75;;;20.10;46.00;;;;;;5035058;28;20049;-46
2020/12/29 01:47:16;;;;;;;0.60;0.60;;;20.10;46.00;;;;;;5034799;28;20488;-43
2020/12/29 01:49:44;;;;;;;0.93;0.70;;;20.00;45.90;;;;;;5034780;28;20083;-46
2020/12/29 01:52:10;;;;;;;0.60;0.60;;;20.00;45.90;;;;;;5035060;28;20053;-45
2020/12/29 01:54:35;;;;;;;2.20;0.90;;;20.00;45.90;;;;;;5034615;28;20049;-44
2020/12/29 01:57:01;;;;;;;0.55;0.55;;;20.00;45.90;;;;;;5034262;28;20344;-45
2020/12/29 01:59:27;;;;;;;0.85;0.85;;;20.00;46.00;;;;;;5034348;28;20081;-44
2020/12/29 02:01:53;;;;;;;0.88;0.70;;;20.00;45.90;;;;;;5034865;28;20033;-45
2020/12/29 02:04:19;;;;;;;0.77;0.73;;;20.00;46.00;;;;;;5034573;28;20033;-44
2020/12/29 02:06:45;;;;;;;0.73;0.70;;;20.00;45.90;;;;;;5034623;28;20029;-44
2020/12/29 02:09:12;;;;;;;0.57;0.57;;;20.00;45.90;;;;;;5034586;28;20109;-44
2020/12/29 02:11:38;;;;;;;1.40;1.05;;;19.90;45.90;;;;;;5034596;28;20387;-44
2020/12/29 02:14:04;;;;;;;0.85;0.80;;;19.90;45.90;;;;;;5034644;28;20030;-44
2020/12/29 02:16:30;;;;;;;0.75;0.60;;;19.90;45.90;;;;;;5034777;28;20036;-45
2020/12/29 02:18:56;;;;;;;0.60;0.60;;;19.90;45.90;;;;;;5034306;28;20428;-44
2020/12/29 02:21:21;;;;;;;0.80;0.70;;;19.90;45.90;;;;;;5034884;28;20025;-45
2020/12/29 02:23:47;;;;;;;0.77;0.70;;;19.90;45.90;;;;;;5034502;28;20376;-44
2020/12/29 02:26:12;;;;;;;0.80;0.70;;;19.80;45.80;;;;;;5034137;28;20120;-45
2020/12/29 02:28:38;;;;;;;0.68;0.68;;;19.80;45.80;;;;;;5034290;28;20037;-46
2020/12/29 02:31:04;;;;;;;0.50;0.50;;;19.80;45.80;;;;;;5036374;28;20341;-46
2020/12/29 02:33:29;;;;;;;1.02;0.68;;;19.80;45.80;;;;;;5038437;28;20025;-47
2020/12/29 02:35:55;;;;;;;0.93;0.75;;;19.80;45.90;;;;;;5038063;28;20491;-45
2020/12/29 02:38:21;;;;;;;3.42;0.63;;;19.80;45.90;;;;;;5038224;28;20109;-44
2020/12/29 02:40:48;;;;;;;0.60;0.60;;;19.80;45.80;;;;;;5037821;28;20415;-44
2020/12/29 02:43:14;;;;;;;0.45;0.45;;;19.80;45.80;;;;;;5038479;28;20087;-47
2020/12/29 02:45:39;;;;;;;0.50;0.50;;;19.70;45.80;;;;;;5038116;28;20022;-47
2020/12/29 02:48:05;;;;;;;1.42;0.68;;;19.70;45.80;;;;;;5037920;28;20451;-48
2020/12/29 02:50:31;;;;;;;0.80;0.80;;;19.70;45.80;;;;;;5037882;28;20037;-44
2020/12/29 02:52:58;;;;;;;1.05;0.65;;;19.80;46.50;;;;;;5037550;28;20040;-44
2020/12/29 02:55:23;;;;;;;0.65;0.60;;;19.70;45.80;;;;;;5037858;28;20022;-44
2020/12/29 02:57:49;;;;;;;0.60;0.60;;;19.70;45.80;;;;;;5037815;28;20432;-45
2020/12/29 03:00:14;;;;;;;0.75;0.70;;;19.70;45.80;;;;;;5037731;28;20041;-47
2020/12/29 03:02:40;;;;;;;0.88;0.70;;;19.70;45.80;;;;;;5037396;28;20455;-45
2020/12/29 03:05:05;;;;;;;0.75;0.60;;;19.70;45.80;;;;;;5037659;28;20022;-45
2020/12/29 03:07:31;;;;;;;0.55;0.55;;;19.60;45.80;;;;;;5037762;28;20333;-46
2020/12/29 03:09:56;;;;;;;0.70;0.70;;;19.70;45.90;;;;;;5037278;28;20112;-45
2020/12/29 03:12:22;;;;;;;1.63;0.70;;;19.60;45.80;;;;;;5037969;28;20392;-46
2020/12/29 03:14:47;;;;;;;1.10;0.70;;;19.60;45.80;;;;;;5037568;28;20080;-47
2020/12/29 03:17:13;;;;;;;0.95;0.73;;;19.60;45.80;;;;;;5037760;28;20129;-45
2020/12/29 03:19:38;;;;;;;1.20;0.70;;;19.60;45.80;;;;;;5037430;28;20029;-48
2020/12/29 03:22:04;;;;;;;0.60;0.60;;;19.60;46.50;;;;;;5037102;28;20083;-44
2020/12/29 03:24:29;;;;;;;1.25;0.70;;;19.60;45.80;;;;;;5037251;28;20022;-43
2020/12/29 03:26:55;;;;;;;0.90;0.73;;;19.50;45.80;;;;;;5037321;28;20167;-45
2020/12/29 03:29:20;;;;;;;0.75;0.75;;;19.50;45.80;;;;;;5037006;28;20034;-45
2020/12/29 03:31:46;;;;;;;0.60;0.60;;;19.50;45.80;;;;;;5037211;28;20113;-45
2020/12/29 03:34:21;;;;;;;0.88;0.65;;;19.60;45.80;;;;;;5037153;28;20022;-45
2020/12/29 03:36:46;;;;;;;0.70;0.70;;;19.50;45.80;;;;;;5036766;28;20108;-43
2020/12/29 03:39:12;;;;;;;0.60;0.57;;;19.50;45.80;;;;;;5036545;28;20168;-43
2020/12/29 03:41:37;;;;;;;0.47;0.47;;;19.50;46.50;;;;;;5036684;28;20029;-44
2020/12/29 03:44:03;;;;;;;0.68;0.68;;;19.50;45.80;;;;;;5037088;28;20032;-46
2020/12/29 03:46:29;;;;;;;0.50;0.50;;;19.50;45.80;;;;;;5036968;28;20026;-47
2020/12/29 03:48:54;;;;;;;1.05;0.60;;;19.50;45.80;;;;;;5036901;28;20033;-44
2020/12/29 03:51:20;;;;;;;0.93;0.80;;;19.50;45.80;;;;;;5036443;28;20155;-44
2020/12/29 03:53:45;;;;;;;0.60;0.60;;;19.50;45.80;;;;;;5036261;28;20454;-45
2020/12/29 03:56:11;;;;;;;0.80;0.80;;;19.50;45.80;;;;;;5036781;28;20029;-44
2020/12/29 03:58:36;;;;;;;0.60;0.60;;;19.50;45.80;;;;;;5036678;28;20025;-44
2020/12/29 04:01:02;;;;;;;0.47;0.45;;;19.40;45.80;;;;;;5036888;28;20025;-45
2020/12/29 04:03:27;;;;;;;0.40;0.40;;;19.40;45.80;;;;;;5036756;28;20109;-45
2020/12/29 04:05:53;;;;;;;0.68;0.68;;;19.40;46.40;;;;;;5036538;28;20057;-43
2020/12/29 04:08:18;;;;;;;0.60;0.60;;;19.40;45.80;;;;;;5036314;28;20044;-43
2020/12/29 04:10:44;;;;;;;1.00;0.80;;;19.30;45.80;;;;;;5036657;28;20034;-44
2020/12/29 04:13:09;;;;;;;0.80;0.60;;;19.40;45.80;;;;;;5036092;28;20032;-45
2020/12/29 04:15:34;;;;;;;0.52;0.50;;;19.40;45.80;;;;;;5036400;28;20360;-47
2020/12/29 04:18:00;;;;;;;1.85;0.70;;;19.40;45.80;;;;;;5036459;28;20032;-44
2020/12/29 04:20:26;;;;;;;0.50;0.50;;;19.40;45.80;;;;;;5036307;28;20118;-44
2020/12/29 04:22:51;;;;;;;0.40;0.40;;;19.40;45.70;;;;;;5035993;28;20021;-44
2020/12/29 04:25:17;;;;;;;0.60;0.60;;;19.40;45.70;;;;;;5036091;28;20041;-44
2020/12/29 04:27:42;;;;;;;0.50;0.50;;;19.40;45.70;;;;;;5036177;28;20033;-44
2020/12/29 04:30:09;;;;;;;0.50;0.40;;;19.40;45.70;;;;;;5035997;28;20091;-44
2020/12/29 04:32:36;;;;;;;0.63;0.55;;;19.40;45.70;;;;;;5036051;28;20049;-44
2020/12/29 04:35:01;;;;;;;0.77;0.65;;;19.40;45.70;;;;;;5035823;28;20053;-44
2020/12/29 04:37:28;;;;;;;0.45;0.40;;;19.50;45.70;;;;;;5035486;28;20144;-45
2020/12/29 04:39:53;;;;;;;0.50;0.50;;;19.50;45.70;;;;;;5035661;28;20037;-45
2020/12/29 04:42:20;;;;;;;0.70;0.70;;;19.40;45.60;;;;;;5035976;28;20413;-44
2020/12/29 04:44:46;;;;;;;0.57;0.57;;;19.50;45.60;;;;;;5035522;28;20440;-43
2020/12/29 04:47:12;;;;;;;0.70;0.70;;;19.50;45.60;;;;;;5035936;28;20037;-44
2020/12/29 04:49:38;;;;;;;0.70;0.70;;;19.50;45.50;;;;;;5035374;28;20072;-44
2020/12/29 04:52:05;;;;;;;0.70;0.70;;;19.50;45.50;;;;;;5035985;28;20112;-44
2020/12/29 04:54:33;;;;;;;0.60;0.60;;;19.40;45.50;;;;;;5034865;28;20029;-46
2020/12/29 04:57:00;;;;;;;1.25;0.80;;;19.40;45.50;;;;;;5035467;28;20353;-44
2020/12/29 04:59:27;;;;;;;0.50;0.50;;;19.40;45.50;;;;;;5035945;28;20022;-45
2020/12/29 05:01:53;;;;;;;0.45;0.45;;;19.40;45.50;;;;;;5035103;28;20036;-44
2020/12/29 05:04:19;;;;;;;0.47;0.47;;;19.40;45.50;;;;;;5035461;28;20033;-45
2020/12/29 05:06:44;;;;;;;0.40;0.40;;;19.40;45.50;;;;;;5035174;28;20029;-43
2020/12/29 05:09:09;;;;;;;0.65;0.60;;;19.40;45.50;;;;;;5035772;28;20364;-44
2020/12/29 05:11:36;;;;;;;0.98;0.57;;;19.40;45.50;;;;;;5035344;28;20053;-44
2020/12/29 05:14:05;;;;;;;0.50;0.50;;;19.40;45.50;;;;;;5035636;28;20025;-44
2020/12/29 05:16:36;;;;;;;0.70;0.60;;;19.40;45.50;;;;;;5035257;28;20029;-45
2020/12/29 05:19:05;;;;;;;0.50;0.50;;;19.40;45.50;;;;;;5035287;28;20037;-44
2020/12/29 05:21:31;;;;;;;2.13;0.90;;;19.40;45.50;;;;;;5034914;28;20031;-43
2020/12/29 05:23:56;;;;;;;0.60;0.60;;;19.40;45.50;;;;;;5035171;28;20025;-45
2020/12/29 05:26:25;;;;;;;1.23;0.50;;;19.40;45.50;;;;;;5035046;28;20105;-44
2020/12/29 05:28:50;;;;;;;0.60;0.60;;;19.40;45.50;;;;;;5035104;28;20025;-44
2020/12/29 05:31:17;;;;;;;1.40;0.70;;;19.40;45.50;;;;;;5035090;28;20474;-44
2020/12/29 05:33:45;;;;;;;0.82;0.60;;;19.40;45.50;;;;;;5035054;28;20037;-44
2020/12/29 05:36:11;;;;;;;0.63;0.63;;;19.40;45.50;;;;;;5034602;28;20075;-44
2020/12/29 05:38:41;;;;;;;0.70;0.60;;;19.40;45.50;;;;;;5034739;28;20029;-44
2020/12/29 05:41:12;;;;;;;0.82;0.80;;;19.40;45.50;;;;;;5034791;28;20021;-44
2020/12/29 05:43:38;;;;;;;0.47;0.47;;;19.40;45.40;;;;;;5034905;28;20022;-43
2020/12/29 05:46:07;;;;;;;1.05;0.60;;;19.40;45.50;;;;;;5035218;28;20030;-44
2020/12/29 05:48:33;;;;;;;0.70;0.60;;;19.40;45.50;;;;;;5034407;28;20032;-44
2020/12/29 05:51:11;;;;;;;0.93;0.85;;;19.40;45.40;;;;;;5034861;28;20128;-44
2020/12/29 05:53:37;;;;;;;0.60;0.60;;;19.40;46.10;;;;;;5034679;28;20018;-44
2020/12/29 05:56:06;;;;;;;0.85;0.55;;;19.40;45.40;;;;;;5035353;28;20451;-46
2020/12/29 05:58:32;;;;;;;0.55;0.45;;;19.40;46.10;;;;;;5035327;28;20459;-45
2020/12/29 06:00:58;;;;;;;0.73;0.73;;;19.40;45.50;;;;;;5034503;28;20021;-45
2020/12/29 06:03:24;;;;;;;0.60;0.60;;;19.40;45.50;;;;;;5034376;28;20026;-45
2020/12/29 06:05:52;;;;;;;0.75;0.55;;;19.40;45.40;;;;;;5037744;28;20424;-45
2020/12/29 06:08:20;;;;;;;0.50;0.50;;;19.40;45.40;;;;;;5038893;28;20029;-46
2020/12/29 06:10:58;;;;;;;1.20;0.77;;;19.40;45.40;;;;;;5039092;28;20352;-45
2020/12/29 06:13:27;;;;;;;1.65;0.80;;;19.40;45.40;;;;;;5038483;28;20036;-50
2020/12/29 06:15:58;;;;;;;0.52;0.52;;;19.40;45.40;;;;;;5038606;28;20360;-45
2020/12/29 06:18:34;;;;;;;0.93;0.93;;;19.40;45.40;;;;;;5038410;28;20348;-44
2020/12/29 06:21:05;;;;;;;0.60;0.60;;;19.40;45.50;;;;;;5038847;28;20340;-46
2020/12/29 06:23:38;;;;;;;0.63;0.63;;;19.40;45.40;;;;;;5038493;28;20029;-45
2020/12/29 06:26:05;;;;;;;;;;;19.40;45.40;;;;;;5038529;28;20028;-45
2020/12/29 06:28:41;;;;;;;0.70;0.70;;;19.30;46.10;;;;;;5038684;28;19913;-46
2020/12/29 06:31:10;;;;;;;0.60;0.60;;;19.40;45.50;;;;;;5038527;28;20030;-45
2020/12/29 06:33:38;;;;;;;0.85;0.55;;;19.40;45.50;;;;;;5038619;28;20026;-44
2020/12/29 06:36:06;;;;;;;1.25;0.88;;;19.40;45.50;;;;;;5038547;28;20432;-45
2020/12/29 06:38:33;;;;;;;0.80;0.80;;;19.40;45.50;;;;;;5038227;28;20025;-47
2020/12/29 06:41:00;;;;;;;1.38;0.80;;;19.30;45.40;;;;;;5038119;28;20057;-44
2020/12/29 06:43:26;;;;;;;0.90;0.90;;;19.40;45.60;;;;;;5038214;28;20025;-44
2020/12/29 06:45:51;;;;;;;2.72;0.90;;;19.40;45.50;;;;;;5038346;28;20337;-45
2020/12/29 06:48:20;;;;;;;0.95;0.80;;;19.40;46.20;;;;;;5037994;28;20037;-45
2020/12/29 06:50:47;;;;;;;1.20;0.85;;;19.40;45.50;;;;;;5037412;28;20080;-44
2020/12/29 06:53:16;;;;;;;3.10;1.00;;;19.30;46.10;;;;;;5037697;28;20476;-46
2020/12/29 06:55:46;;;;;;;2.53;1.20;;;19.40;45.60;;;;;;5037783;28;20036;-46
2020/12/29 06:58:32;;;;;;;0.90;0.80;;;19.40;45.60;;;;;;5037471;28;20399;-45
2020/12/29 07:01:25;;;;;;;1.33;1.05;;;19.40;45.60;;;;;;5037379;28;20030;-45
2020/12/29 07:04:04;;;;;;;1.20;0.90;;;19.40;45.70;;;;;;5037982;28;20027;-45
2020/12/29 07:06:34;;;;;;;3.03;0.90;;;19.40;45.70;;;;;;5037497;28;20036;-45
2020/12/29 07:09:15;;;;;;;2.20;0.98;;;19.40;45.70;;;;;;5037523;28;20033;-45
2020/12/29 07:12:04;;;;;;;1.10;1.00;;;19.50;45.70;;;;;;5037789;28;20084;-45
2020/12/29 07:14:31;;;;;;;1.35;0.85;;;19.50;45.70;;;;;;5037443;28;20029;-46
2020/12/29 07:16:58;;;;;;;1.35;1.08;;;19.50;45.70;;;;;;5036301;28;20025;-46
2020/12/29 07:19:26;;;;;;;3.25;0.77;;;19.50;45.80;;;;;;5037486;28;20037;-44
2020/12/29 07:21:52;;;;;;;1.85;1.05;;;19.60;45.90;;;;;;5037579;28;20113;-46
2020/12/29 07:24:18;;;;;;;1.85;1.08;;;19.60;46.00;;;;;;5037315;28;20021;-44
2020/12/29 07:26:43;;;;;;;6.65;1.10;;;19.60;45.90;;;;;;5037558;28;20100;-48
2020/12/29 07:29:09;;;;;;;1.02;0.93;;;19.70;46.10;;;;;;5036990;28;20044;-44
2020/12/29 07:31:39;;;;;;;1.45;1.05;;;19.70;46.10;;;;;;5036717;28;20022;-44
2020/12/29 07:34:10;;;;;;;1.35;1.05;;;19.80;46.10;;;;;;5037140;28;20021;-44
2020/12/29 07:36:39;;;;;;;1.85;1.00;;;19.80;46.10;;;;;;5036015;28;20367;-45
2020/12/29 07:39:04;;;;;;;1.13;0.85;;;19.80;46.00;;;;;;5037419;28;20033;-45
2020/12/29 07:41:33;;;;;;;1.67;1.20;;;19.90;46.00;;;;;;5037265;28;20454;-45
2020/12/29 07:43:59;;;;;;;1.95;0.90;;;19.90;46.00;;;;;;5037247;28;20021;-44
2020/12/29 07:46:27;;;;;;;0.65;0.60;;;20.00;46.10;;;;;;5036613;28;20455;-45
2020/12/29 07:48:52;;;;;;;4.18;1.15;;;20.00;46.00;;;;;;5036639;28;20452;-45
2020/12/29 07:51:18;;;;;;;1.67;0.85;;;20.10;46.00;;;;;;5037291;28;20057;-44
2020/12/29 07:53:43;;;;;;;3.35;0.95;;;20.10;46.00;;;;;;5036786;28;20029;-45
2020/12/29 07:56:09;;;;;;;1.35;0.88;;;20.10;46.00;;;;;;5036463;28;20029;-44
2020/12/29 07:58:35;;;;;;;0.82;0.82;;;20.10;46.00;;;;;;5036750;28;20025;-45
2020/12/29 08:01:03;;;;;;;0.98;0.80;;;20.20;46.00;;;;;;5036630;28;20029;-48
2020/12/29 08:03:28;;;;;;;1.40;1.00;;;20.20;46.00;;;;;;5036633;28;20104;-44
2020/12/29 08:05:54;;;;;;;4.30;0.90;;;20.30;46.00;;;;;;5036708;28;20065;-44
2020/12/29 08:08:19;;;;;;;1.88;0.70;;;20.30;46.00;;;;;;5036360;28;20056;-44
2020/12/29 08:10:45;;;;;;;1.15;0.73;;;20.30;46.00;;;;;;5035358;28;20034;-48
2020/12/29 08:13:13;;;;;;;1.15;0.93;;;20.30;45.90;;;;;;5035297;28;20017;-44
2020/12/29 08:15:43;;;;;;;4.97;0.90;;;20.30;46.00;;;;;;5035996;28;20040;-43
2020/12/29 08:18:11;;;;;;;1.52;0.93;;;20.40;46.70;;;;;;5036270;28;20026;-45
2020/12/29 08:20:45;;;;;;;2.75;1.33;;;20.40;46.00;;;;;;5036162;28;20109;-45
2020/12/29 08:23:12;;;;;;;3.45;1.30;;;20.40;45.70;;;;;;5036068;28;20452;-45
2020/12/29 08:25:37;;;;;;;2.05;0.80;;;20.40;45.80;;;;;;5035805;28;20511;-44
2020/12/29 08:28:04;;;;;;;4.63;1.00;;;20.40;46.60;;;;;;5035133;28;20104;-44
2020/12/29 08:30:32;;;;;;;2.63;0.82;;;20.40;46.00;;;;;;5035799;28;20013;-44
2020/12/29 08:33:00;;;;;;;4.18;0.98;;;20.40;46.00;;;;;;5035708;28;20049;-43
2020/12/29 08:35:28;;;;;;;6.30;0.88;;;20.40;46.00;;;;;;5035666;28;20028;-45
2020/12/29 08:38:13;;;;;;;2.38;0.77;;;20.40;46.00;;;;;;5030083;28;20125;-44
2020/12/29 08:40:51;;;;;;;4.82;1.33;;;20.40;46.00;;;;;;5016053;28;20112;-44
2020/12/29 08:43:17;;;;;;;2.15;1.05;;;20.40;46.00;;;;;;5016292;28;20429;-45
2020/12/29 08:45:43;;;;;;;3.08;0.77;;;20.50;46.10;;;;;;5015773;28;20030;-45
2020/12/29 08:48:08;;;;;;;2.78;1.25;;;20.40;46.00;;;;;;5015898;28;20401;-44
2020/12/29 08:50:34;;;;;;;5.97;0.95;;;20.40;46.00;;;;;;5015533;28;20073;-45
2020/12/29 08:53:07;;;;;;;4.07;2.75;;;20.40;46.10;;;;;;5016142;28;20168;-45
2020/12/29 08:55:34;;;;;;;4.78;2.85;;;20.40;46.20;;;;;;5015609;28;20491;-44
2020/12/29 08:58:01;;;;;;;8.63;2.42;;;20.40;46.00;;;;;;5015593;28;20022;-44
2020/12/29 09:00:29;;;;;;;7.28;2.45;;;20.40;46.20;;;;;;5015169;28;20029;-45
2020/12/29 09:02:55;;;;;;;5.57;2.75;;;20.40;46.30;;;;;;5016417;28;20033;-45
2020/12/29 09:05:22;;;;;;;4.65;3.08;;;20.40;46.50;;;;;;5015648;28;20026;-46
2020/12/29 09:07:48;;;;;;;14.85;2.78;;;20.40;46.60;;;;;;5015956;28;20025;-44
2020/12/29 09:10:15;;;;;;;20.85;3.58;;;20.40;46.50;;;;;;5015797;28;20049;-45
2020/12/29 09:12:41;;;;;;;50.30;5.97;;;20.50;46.50;;;;;;5015162;28;20436;-47
2020/12/29 09:15:09;;;;;;;19.90;3.30;;;20.50;46.10;;;;;;5015224;28;20030;-45
2020/12/29 09:17:36;;;;;;;10.27;2.75;;;20.50;46.00;;;;;;5015524;28;20425;-47
2020/12/29 09:20:15;;;;;;;9.35;2.30;;;20.50;46.10;;;;;;5015567;28;20026;-46
2020/12/29 09:23:02;;;;;;;7.80;2.17;;;20.50;46.80;;;;;;5015616;28;20042;-45
2020/12/29 09:25:36;;;;;;;4.28;1.85;;;20.60;46.20;;;;;;5014968;28;20022;-45
2020/12/29 09:28:18;;;;;;;5.10;1.98;;;20.60;46.30;;;;;;5015268;28;20052;-48
2020/12/29 09:31:05;;;;;;;10.13;3.03;;;20.60;46.20;;;;;;5015924;28;20022;-46
2020/12/29 09:33:32;;;;;;;11.35;2.55;;;20.60;46.10;;;;;;5015538;28;20026;-47
2020/12/29 09:35:59;;;;;;;6.80;1.90;;;20.60;46.20;;;;;;5015635;28;20041;-45
2020/12/29 09:38:25;;;;;;;4.50;1.75;;;20.60;46.20;;;;;;5015232;28;20113;-45
2020/12/29 09:40:51;;;;;;;4.43;1.67;;;20.60;46.20;;;;;;5014816;28;20026;-46
2020/12/29 09:43:17;;;;;;;4.45;2.00;;;20.60;46.20;;;;;;5014920;28;20036;-46
2020/12/29 09:45:45;;;;;;;2.33;1.45;;;20.60;46.10;;;;;;5015166;28;20097;-46
2020/12/29 09:48:14;;;;;;;9.32;2.00;;;20.70;46.10;;;;;;5014812;28;20026;-45
2020/12/29 09:50:41;;;;;;;3.35;1.60;;;20.70;46.70;;;;;;5014787;28;20509;-46
2020/12/29 09:53:07;;;;;;;4.97;1.50;;;20.70;46.00;;;;;;5015339;28;20050;-46
2020/12/29 09:55:32;;;;;;;4.32;1.35;;;20.70;45.90;;;;;;5015096;28;20033;-46
2020/12/29 09:57:58;;;;;;;3.50;1.15;;;20.80;45.90;;;;;;5014669;28;20030;-44
2020/12/29 10:00:23;;;;;;;2.28;1.50;;;20.80;45.90;;;;;;5015187;28;20040;-46
2020/12/29 10:02:49;;;;;;;9.57;1.60;;;20.80;45.80;;;;;;5014992;28;20037;-45
2020/12/29 10:05:15;;;;;;;6.40;1.30;;;20.80;45.80;;;;;;5014715;28;20022;-44
2020/12/29 10:07:43;;;;;;;5.10;1.75;;;20.90;45.80;;;;;;5015006;28;20022;-49
2020/12/29 10:10:09;;;;;;;8.07;1.60;;;20.90;45.80;;;;;;5014902;28;20049;-47
2020/12/29 10:12:34;;;;;;;1.85;1.23;;;20.90;45.70;;;;;;5014928;28;20357;-45
2020/12/29 10:15:00;;;;;;;5.55;1.40;;;20.90;45.70;;;;;;5014983;28;20456;-46
2020/12/29 10:17:25;;;;;;;2.17;1.42;;;20.80;45.60;;;;;;5014719;28;20026;-44
2020/12/29 10:19:51;;;;;;;4.10;1.40;;;20.90;45.60;;;;;;5014847;28;20371;-44
2020/12/29 10:22:16;;;;;;;1.33;1.23;;;20.90;45.60;;;;;;5015136;28;20035;-46
2020/12/29 10:24:42;;;;;;;7.53;1.70;;;20.80;45.50;;;;;;5014787;28;20026;-45
2020/12/29 10:27:07;;;;;;;3.47;1.13;;;20.80;45.50;;;;;;5014643;28;20024;-46
2020/12/29 10:29:33;;;;;;;2.90;1.25;;;20.80;45.50;;;;;;5014666;28;20416;-45
2020/12/29 10:31:58;;;;;;;6.20;1.23;;;20.80;45.60;;;;;;5014241;28;20029;-45
2020/12/29 10:34:24;;;;;;;3.75;1.38;;;20.80;45.70;;;;;;5014310;28;20425;-44
2020/12/29 10:36:49;;;;;;;6.90;1.70;;;20.80;45.70;;;;;;5014421;28;20026;-50
2020/12/29 10:39:15;;;;;;;5.05;1.52;;;20.80;45.70;;;;;;5014392;28;20072;-44
2020/12/29 10:41:41;;;;;;;2.10;1.08;;;20.80;45.70;;;;;;5014320;28;20038;-44
2020/12/29 10:44:08;;;;;;;3.95;1.30;;;20.80;45.80;;;;;;5018748;28;20021;-44
2020/12/29 10:46:34;;;;;;;2.15;1.15;;;20.90;45.80;;;;;;5032322;28;20037;-48
2020/12/29 10:49:00;;;;;;;2.83;1.13;;;20.80;45.80;;;;;;5024789;28;20387;-46
2020/12/29 10:51:26;;;;;;;4.07;1.10;;;20.90;45.80;;;;;;5024833;28;20061;-43
2020/12/29 10:53:53;;;;;;;1.52;1.00;;;20.90;45.80;;;;;;5036794;28;20152;-44
2020/12/29 10:56:18;;;;;;;7.18;1.45;;;20.90;45.70;;;;;;5037468;28;20112;-53
2020/12/29 10:58:44;;;;;;;1.92;0.90;;;20.90;45.70;;;;;;5037407;28;20105;-46
2020/12/29 11:01:11;;;;;;;1.10;1.00;;;20.90;46.30;;;;;;5037556;28;20068;-45
2020/12/29 11:03:37;;;;;;;2.22;1.00;;;20.90;45.60;;;;;;5037589;28;20026;-51
2020/12/29 11:06:10;;;;;;;3.22;1.10;;;20.90;45.50;;;;;;5037500;28;20086;-46
2020/12/29 11:08:36;;;;;;;1.77;0.95;;;20.90;45.50;;;;;;5037736;28;20060;-44
2020/12/29 11:11:01;;;;;;;3.83;1.05;;;20.90;45.50;;;;;;5037285;28;20069;-44
2020/12/29 11:13:27;;;;;;;4.07;1.15;;;20.90;45.50;;;;;;5037712;28;20155;-44
2020/12/29 11:15:53;;;;;;;2.95;1.40;;;20.90;45.50;;;;;;5037286;28;20026;-43
2020/12/29 11:18:18;;;;;;;1.40;0.82;;;20.90;45.40;;;;;;5037302;28;20068;-44
2020/12/29 11:20:44;;;;;;;2.25;0.80;;;20.90;45.40;;;;;;5037486;28;20028;-44
2020/12/29 11:23:09;;;;;;;3.25;1.00;;;20.90;45.50;;;;;;5037259;28;20035;-45
2020/12/29 11:25:35;;;;;;;2.28;0.98;;;20.90;45.50;;;;;;5028960;28;20033;-46
2020/12/29 11:28:00;;;;;;;0.80;0.80;;;20.90;45.60;;;;;;5020482;28;20348;-44
2020/12/29 11:30:26;;;;;;;2.05;1.20;;;20.90;45.70;;;;;;5016719;28;20029;-46
2020/12/29 11:32:52;;;;;;;1.45;1.25;;;20.90;45.70;;;;;;5017311;28;20030;-46
2020/12/29 11:35:17;;;;;;;6.82;1.00;;;20.90;45.80;;;;;;5017364;28;20057;-45
2020/12/29 11:37:42;;;;;;;5.70;1.00;;;20.90;45.70;;;;;;5017343;28;20037;-47
2020/12/29 11:40:09;;;;;;;3.90;1.05;;;20.90;45.70;;;;;;5017242;28;20030;-45
2020/12/29 11:42:35;;;;;;;1.50;0.95;;;20.90;45.70;;;;;;5017134;28;20018;-45
2020/12/29 11:45:01;;;;;;;2.92;1.35;;;20.90;45.70;;;;;;5017638;28;20030;-45
2020/12/29 11:47:26;;;;;;;6.03;1.30;;;21.00;45.60;;;;;;5016939;28;20036;-44
2020/12/29 11:49:52;;;;;;;2.05;1.20;;;20.90;45.40;;;;;;5016236;28;20033;-45
2020/12/29 11:52:18;;;;;;;1.90;0.90;;;20.90;45.50;;;;;;5017299;28;20524;-45
2020/12/29 11:54:43;;;;;;;2.97;0.90;;;20.90;45.60;;;;;;5016863;28;20038;-44
2020/12/29 11:57:09;;;;;;;2.88;0.95;;;21.00;45.80;;;;;;5016655;28;20455;-45
2020/12/29 11:59:37;;;;;;;2.38;1.10;;;21.00;45.80;;;;;;5016708;28;20026;-49
2020/12/29 12:02:03;;;;;;;0.90;0.70;;;21.00;45.80;;;;;;5016355;28;20030;-47
2020/12/29 12:04:28;;;;;;;2.17;1.33;;;21.00;45.80;;;;;;5016537;28;20109;-46
2020/12/29 12:06:54;;;;;;;1.80;1.20;;;21.00;45.70;;;;;;5016867;28;20029;-45
2020/12/29 12:09:19;;;;;;;2.78;0.90;;;21.00;45.50;;;;;;5016746;28;20076;-46
2020/12/29 12:11:45;;;;;;;9.30;1.10;;;21.00;45.60;;;;;;5016451;28;20021;-46
2020/12/29 12:14:10;;;;;;;4.80;0.80;;;21.00;45.70;;;;;;5016542;28;20018;-47
2020/12/29 12:16:39;;;;;;;5.13;1.17;;;21.10;45.80;;;;;;5016244;28;20437;-46
2020/12/29 12:19:05;;;;;;;3.25;1.25;;;21.10;45.90;;;;;;5016593;28;20356;-50
2020/12/29 12:21:32;;;;;;;2.28;1.38;;;21.10;45.90;;;;;;5016505;28;20026;-51
2020/12/29 12:23:58;;;;;;;9.10;1.88;;;21.10;45.90;;;;;;5016762;28;20048;-52
2020/12/29 12:26:24;;;;;;;5.05;1.50;;;21.20;46.00;;;;;;5016246;28;20046;-51
2020/12/29 12:28:50;;;;;;;2.97;2.00;;;21.20;46.10;;;;;;5015791;28;20033;-48
2020/12/29 12:31:16;;;;;;;4.13;1.70;;;21.20;46.10;;;;;;5016030;28;20026;-50
2020/12/29 12:33:42;;;;;;;5.05;1.00;;;21.20;46.10;;;;;;5016420;28;20368;-51
2020/12/29 12:36:07;;;;;;;4.13;1.30;;;21.20;46.20;;;;;;5016304;28;20092;-52
2020/12/29 12:38:33;;;;;;;6.35;1.33;;;21.20;46.30;;;;;;5016114;28;20041;-46
2020/12/29 12:41:00;;;;;;;5.05;1.27;;;21.20;46.40;;;;;;5016159;28;20080;-46
2020/12/29 12:43:26;;;;;;;4.47;1.20;;;21.20;46.40;;;;;;5015903;28;20056;-46
2020/12/29 12:45:51;;;;;;;2.45;1.08;;;21.20;46.50;;;;;;5015644;28;20022;-46
2020/12/29 12:48:17;;;;;;;3.40;1.17;;;21.30;46.50;;;;;;5016312;28;20037;-46